Time;durP1;ratioP1;P1;durP2;ratioP2;P2;SDS_P1;SDS_P2;PMS_P1;PMS_P2;Temp;Humidity;BMP_temperature;BMP_pressure;BME280_temperature;BME280_humidity;BME280_pressure;Samples;Min_cycle;Max_cycle;Signal;HPM_P1;HPM_P2
2022/01/12 00:00:14;;;;;;;4.57;3.03;;;-1.00;71.80;-1.70;98046.00;;;;5006133;28;20429;-75
2022/01/12 00:03:04;;;;;;;3.20;2.90;;;-1.10;73.20;-1.80;98057.00;;;;5007166;28;20461;-75
2022/01/12 00:05:54;;;;;;;3.40;2.30;;;-1.20;72.40;-1.80;98049.00;;;;5006390;28;20433;-75
2022/01/12 00:08:43;;;;;;;4.07;2.97;;;-1.30;72.80;-1.80;98060.00;;;;5006030;28;20464;-74
2022/01/12 00:11:31;;;;;;;4.70;2.80;;;-1.30;73.20;-1.90;98048.00;;;;5006621;28;20460;-73
2022/01/12 00:14:20;;;;;;;4.57;3.10;;;-1.30;73.50;-2.00;98043.00;;;;5007299;28;20433;-71
2022/01/12 00:17:09;;;;;;;4.17;2.93;;;-1.40;74.00;-2.00;98044.00;;;;5006021;28;20425;-73
2022/01/12 00:19:59;;;;;;;4.47;2.80;;;-1.40;74.00;-2.00;98042.00;;;;5005650;28;20858;-73
2022/01/12 00:22:48;;;;;;;3.57;2.37;;;-1.50;74.00;-2.10;98044.00;;;;5005127;28;20959;-74
2022/01/12 00:25:57;;;;;;;5.27;3.07;;;-1.50;74.20;-2.00;98047.00;;;;5004900;28;20441;-73
2022/01/12 00:35:08;;;;;;;3.77;2.80;;;-1.50;74.40;-2.20;98063.00;;;;4979895;28;20460;-75
2022/01/12 00:37:57;;;;;;;4.47;2.93;;;-1.60;74.60;-2.20;98053.00;;;;5006332;28;20417;-73
2022/01/12 00:40:49;;;;;;;4.20;2.40;;;-2.10;74.60;-2.10;98067.00;;;;5004498;28;20422;-73
2022/01/12 00:43:42;;;;;;;3.67;2.80;;;-1.60;74.70;-2.10;98066.00;;;;5007261;28;20425;-74
2022/01/12 00:46:32;;;;;;;3.27;2.40;;;-1.60;74.70;-2.10;98069.00;;;;4998589;28;20426;-72
2022/01/12 00:49:21;;;;;;;4.30;3.20;;;-1.60;75.30;-2.10;98070.00;;;;5006792;28;20429;-73
2022/01/12 00:52:12;;;;;;;3.53;2.93;;;-1.60;74.90;-2.10;98074.00;;;;5006960;28;20685;-73
2022/01/12 00:55:01;;;;;;;3.87;2.50;;;-1.60;74.10;-2.10;98074.00;;;;5002791;28;20479;-72
2022/01/12 00:57:51;;;;;;;4.27;2.20;;;-1.60;75.20;-2.20;98073.00;;;;5007000;28;20818;-72
2022/01/12 01:00:40;;;;;;;3.47;2.63;;;-1.60;75.60;-2.20;98082.00;;;;5006214;28;20441;-72
2022/01/12 01:03:30;;;;;;;5.33;2.73;;;-1.60;75.10;-2.20;98071.00;;;;5006212;28;20477;-74
2022/01/12 01:06:21;;;;;;;2.20;2.00;;;-1.70;75.60;-2.20;98077.00;;;;5006455;28;20440;-73
2022/01/12 01:09:11;;;;;;;3.77;2.67;;;-1.70;75.70;-2.20;98079.00;;;;5006071;28;20972;-74
2022/01/12 01:12:00;;;;;;;3.33;2.60;;;-1.70;75.70;-2.20;98079.00;;;;5006118;28;20441;-73
2022/01/12 01:15:01;;;;;;;3.93;2.77;;;-1.70;74.60;-2.20;98070.00;;;;5006700;28;20429;-72
2022/01/12 01:27:15;;;;;;;3.17;2.80;;;-1.70;74.30;-2.00;98074.00;;;;5003643;28;20433;-74
2022/01/12 01:30:05;;;;;;;4.10;2.17;;;-1.60;73.00;-2.00;98079.00;;;;5004343;28;20471;-73
2022/01/12 01:32:56;;;;;;;5.80;2.00;;;-1.60;73.80;-2.10;98085.00;;;;5005714;28;20647;-75
2022/01/12 01:35:50;;;;;;;3.17;2.50;;;-1.60;74.60;-2.10;98081.00;;;;5002787;28;20464;-72
2022/01/12 01:38:39;;;;;;;2.87;2.30;;;-1.50;74.20;-2.10;98084.00;;;;5003047;28;20426;-73
2022/01/12 01:41:28;;;;;;;2.17;1.97;;;-1.60;74.70;-2.10;98078.00;;;;4998845;28;20449;-75
2022/01/12 01:53:38;;;;;;;2.07;1.87;;;-1.60;74.60;-2.10;98083.00;;;;4995289;28;20426;-75
2022/01/12 01:56:27;;;;;;;2.60;2.40;;;-1.60;74.00;-2.00;98084.00;;;;5003083;28;20956;-72
2022/01/12 01:59:17;;;;;;;2.87;2.30;;;-1.60;73.60;-2.00;98074.00;;;;5004848;28;20441;-75
2022/01/12 02:02:06;;;;;;;4.23;2.30;;;-1.60;72.70;-1.70;98074.00;;;;5004334;28;20469;-74
2022/01/12 02:04:55;;;;;;;2.77;2.40;;;-1.50;71.20;-1.80;98074.00;;;;5004453;28;21145;-75
2022/01/12 02:07:44;;;;;;;3.43;2.33;;;-1.40;71.60;-2.00;98074.00;;;;5006637;28;20428;-75
2022/01/12 02:10:34;;;;;;;2.77;2.20;;;-1.40;73.30;-1.60;98078.00;;;;5005046;28;20840;-75
2022/01/12 02:13:23;;;;;;;4.63;2.87;;;-1.30;71.20;-1.70;98068.00;;;;5005353;28;20425;-75
2022/01/12 02:16:16;;;;;;;5.07;2.30;;;-1.30;71.20;-1.60;98072.00;;;;4996133;28;20437;-72
2022/01/12 02:19:16;;;;;;;2.30;2.10;;;-1.20;70.90;-1.80;98061.00;;;;5007553;28;20826;-74
2022/01/12 02:41:06;;;;;;;4.37;2.57;;;-0.90;69.90;-1.40;98078.00;;;;5000647;28;20457;-74
2022/01/12 02:56:28;;;;;;;3.47;2.50;;;-0.80;67.80;-1.20;98066.00;;;;5006201;28;20437;-73
2022/01/12 02:59:17;;;;;;;3.67;1.83;;;-0.70;67.50;-1.40;98060.00;;;;5009290;28;20429;-75
2022/01/12 03:02:21;;;;;;;2.90;1.83;;;-0.80;68.80;-1.60;98062.00;;;;5007859;28;20456;-72
2022/01/12 03:05:32;;;;;;;2.37;1.90;;;-0.90;69.80;-1.70;98048.00;;;;5009160;28;20429;-74
2022/01/12 03:08:24;;;;;;;4.00;2.73;;;-1.00;70.00;-1.80;98052.00;;;;5008600;28;20429;-72
2022/01/12 03:11:17;;;;;;;3.17;1.70;;;-1.10;69.40;-2.20;98049.00;;;;5007363;28;20963;-74
2022/01/12 03:14:06;;;;;;;5.17;2.37;;;-1.20;69.10;-2.30;98055.00;;;;5007348;28;20425;-72
2022/01/12 03:16:55;;;;;;;2.23;2.03;;;-1.40;69.70;-2.30;98054.00;;;;5008246;28;20441;-72
2022/01/12 03:19:44;;;;;;;1.63;1.53;;;-1.50;70.20;-2.30;98050.00;;;;5003499;28;20444;-73
2022/01/12 03:22:33;;;;;;;3.73;2.50;;;-1.60;70.30;-2.50;98057.00;;;;5003676;28;20469;-73
2022/01/12 03:25:23;;;;;;;1.37;1.27;;;-1.60;70.60;-2.80;98050.00;;;;5006001;28;20472;-74
2022/01/12 03:28:12;;;;;;;3.00;1.90;;;-1.70;71.70;-3.00;98057.00;;;;5007692;28;20796;-73
2022/01/12 03:31:08;;;;;;;3.57;1.70;;;-1.80;71.40;-3.40;98059.00;;;;5008376;28;20460;-74
2022/01/12 03:34:05;;;;;;;0.57;0.57;;;-2.10;72.70;-4.10;98043.00;;;;5007871;28;20429;-74
2022/01/12 03:37:16;;;;;;;1.30;1.20;;;-2.40;74.10;-4.10;98052.00;;;;5006283;28;20430;-73
2022/01/12 03:40:06;;;;;;;2.13;1.73;;;-2.70;75.50;-4.20;98061.00;;;;5005809;28;20951;-71
2022/01/12 03:42:56;;;;;;;2.10;2.00;;;-2.90;76.50;-4.10;98062.00;;;;5007687;28;21081;-73
2022/01/12 03:45:47;;;;;;;3.70;2.17;;;-3.00;77.20;-4.10;98066.00;;;;5006908;28;20441;-71
2022/01/12 03:48:36;;;;;;;3.77;2.00;;;-3.10;77.40;-3.90;98060.00;;;;5007379;28;20444;-73
2022/01/12 03:51:25;;;;;;;1.90;1.63;;;-3.10;77.70;-4.30;98072.00;;;;5006168;28;20460;-73
2022/01/12 03:54:15;;;;;;;2.47;2.27;;;-3.20;78.50;-4.60;98072.00;;;;5006775;28;20448;-73
2022/01/12 03:57:05;;;;;;;3.80;1.73;;;-3.30;79.20;-4.40;98074.00;;;;5004826;28;20424;-71
2022/01/12 03:59:55;;;;;;;2.27;1.70;;;-3.40;79.30;-4.40;98074.00;;;;5004460;28;20421;-73
2022/01/12 04:02:44;;;;;;;2.97;2.03;;;-3.40;79.50;-4.30;98079.00;;;;5004972;28;20585;-74
2022/01/12 04:08:18;;;;;;;1.80;1.70;;;-3.50;79.60;-4.20;98088.00;;;;5003335;28;21055;-73
2022/01/12 04:08:48;;;;;;;2.50;2.00;;;-3.50;79.90;-3.90;98079.00;;;;4995722;28;20445;-72
2022/01/12 04:11:37;;;;;;;2.93;1.43;;;-3.40;79.30;-4.30;98083.00;;;;5005083;28;20456;-71
2022/01/12 04:14:26;;;;;;;2.10;1.60;;;-3.40;79.40;-4.60;98067.00;;;;5007157;28;20444;-73
2022/01/12 04:17:17;;;;;;;1.63;1.53;;;-3.40;80.10;-4.90;98063.00;;;;5004312;28;20430;-71
2022/01/12 04:20:07;;;;;;;3.13;2.50;;;-3.60;80.70;-4.80;98065.00;;;;5004341;28;20433;-73
2022/01/12 04:26:08;;;;;;;2.97;2.13;;;-3.70;81.60;-4.50;98072.00;;;;5005767;28;20429;-73
2022/01/12 04:28:57;;;;;;;4.20;1.70;;;-3.80;81.80;-4.80;98072.00;;;;5007636;28;20430;-73
2022/01/12 04:31:46;;;;;;;1.93;1.40;;;-3.80;82.00;-4.60;98073.00;;;;5006123;28;20459;-73
2022/01/12 04:34:36;;;;;;;2.60;2.20;;;-3.80;82.00;-4.90;98067.00;;;;5005815;28;20714;-71
2022/01/12 04:37:25;;;;;;;3.20;2.20;;;-3.80;82.40;-4.60;98079.00;;;;5005506;28;20801;-72
2022/01/12 04:40:15;;;;;;;2.27;1.27;;;-3.80;82.50;-4.70;98083.00;;;;4998960;28;20409;-72
2022/01/12 04:43:04;;;;;;;2.43;1.93;;;-3.90;82.40;-5.00;98083.00;;;;4995881;28;20823;-71
2022/01/12 04:46:21;;;;;;;5.87;1.90;;;-3.90;82.90;-4.80;98071.00;;;;5002725;28;20438;-72
2022/01/12 04:49:26;;;;;;;1.57;1.43;;;-4.00;83.00;-4.90;98080.00;;;;4991946;28;20516;-73
2022/01/12 04:52:18;;;;;;;4.87;1.50;;;-4.00;83.30;-4.90;98080.00;;;;5006901;28;20452;-74
2022/01/12 04:55:08;;;;;;;5.10;2.00;;;-4.00;83.30;-4.90;98080.00;;;;4999625;28;20433;-71
2022/01/12 04:57:57;;;;;;;2.67;2.47;;;-4.00;83.60;-4.90;98090.00;;;;4998954;28;20548;-74
2022/01/12 05:00:48;;;;;;;1.70;1.60;;;-4.00;83.80;-5.10;98089.00;;;;4995160;28;20429;-73
2022/01/12 05:06:53;;;;;;;4.37;2.10;;;-4.10;84.40;-5.10;98105.00;;;;5005807;28;20452;-74
2022/01/12 05:12:43;;;;;;;3.00;2.47;;;-4.10;84.70;-5.30;98093.00;;;;5005361;28;20458;-70
2022/01/12 05:13:01;;;;;;;2.13;1.93;;;-4.20;85.10;-5.10;98115.00;;;;5005028;28;20440;-73
2022/01/12 05:15:49;;;;;;;3.70;1.57;;;-4.30;85.30;-5.30;98108.00;;;;5005259;28;20444;-72
2022/01/12 05:18:40;;;;;;;4.33;2.53;;;-4.20;85.90;-5.10;98110.00;;;;4994171;28;20433;-73
2022/01/12 05:21:30;;;;;;;2.17;1.83;;;-4.30;85.70;-5.00;98117.00;;;;5004134;28;20483;-74
2022/01/12 05:24:18;;;;;;;1.50;1.40;;;-4.30;86.00;-5.40;98111.00;;;;5002906;28;20469;-70
2022/01/12 05:27:09;;;;;;;4.70;2.40;;;-4.30;86.20;-5.20;98127.00;;;;5005517;28;20931;-72
2022/01/12 05:29:58;;;;;;;1.77;1.53;;;-4.30;85.90;-5.10;98119.00;;;;5005756;28;20425;-73
2022/01/12 05:32:47;;;;;;;2.10;1.90;;;-4.30;85.70;-5.00;98129.00;;;;5005476;28;20459;-72
2022/01/12 05:35:36;;;;;;;4.87;1.77;;;-4.20;85.50;-5.00;98123.00;;;;5005008;28;20825;-72
2022/01/12 05:38:26;;;;;;;1.70;1.47;;;-4.20;85.60;-5.00;98136.00;;;;5004016;28;20433;-72
2022/01/12 05:41:15;;;;;;;2.23;1.57;;;-4.20;85.20;-4.80;98128.00;;;;5004407;28;20449;-72
2022/01/12 05:44:07;;;;;;;2.50;2.00;;;-4.20;85.20;-4.90;98136.00;;;;5005223;28;20472;-72
2022/01/12 05:46:56;;;;;;;9.17;4.33;;;-4.10;85.30;-5.40;98124.00;;;;5005343;28;20441;-73
2022/01/12 05:49:45;;;;;;;1.60;1.50;;;-4.30;85.80;-5.10;98142.00;;;;4997574;28;20429;-74
2022/01/12 05:52:34;;;;;;;2.10;1.87;;;-4.30;85.90;-5.40;98134.00;;;;5010456;28;20456;-73
2022/01/12 05:55:23;;;;;;;10.80;4.23;;;-4.30;86.20;-5.60;98141.00;;;;5006271;28;20800;-75
2022/01/12 05:58:12;;;;;;;2.47;1.80;;;-4.40;86.60;-5.40;98151.00;;;;5010055;28;20963;-73
2022/01/12 06:01:03;;;;;;;2.37;2.27;;;-4.40;86.90;-5.20;98156.00;;;;5008840;28;20455;-73
2022/01/12 06:03:52;;;;;;;1.73;1.63;;;-4.40;86.90;-5.40;98158.00;;;;5008272;28;20429;-76
2022/01/12 06:06:41;;;;;;;3.83;2.33;;;-4.40;86.80;-5.40;98156.00;;;;5009630;28;20429;-72
2022/01/12 06:09:29;;;;;;;2.87;2.30;;;-4.40;86.90;-5.60;98168.00;;;;5008322;28;20435;-73
2022/01/12 06:12:18;;;;;;;2.70;2.47;;;-4.50;87.30;-5.60;98156.00;;;;5009150;28;20471;-72
2022/01/12 06:15:09;;;;;;;2.37;1.60;;;-4.50;87.90;-5.50;98161.00;;;;5007483;28;20971;-71
2022/01/12 06:17:59;;;;;;;1.73;1.53;;;-4.60;87.90;-5.40;98159.00;;;;5008208;28;20437;-73
2022/01/12 06:20:48;;;;;;;6.07;1.80;;;-4.60;88.00;-5.20;98164.00;;;;5005970;28;20452;-70
2022/01/12 06:23:37;;;;;;;2.27;2.03;;;-4.60;87.80;-5.60;98168.00;;;;5004624;28;20536;-73
2022/01/12 06:26:26;;;;;;;4.13;2.80;;;-4.50;87.70;-5.60;98171.00;;;;5006017;28;20435;-73
2022/01/12 06:29:26;;;;;;;2.43;2.17;;;-4.60;88.20;-6.00;98163.00;;;;5009384;28;20417;-72
2022/01/12 06:32:15;;;;;;;1.50;1.40;;;-4.70;88.70;-6.20;98165.00;;;;5009736;28;20440;-71
2022/01/12 06:35:06;;;;;;;2.60;2.23;;;-4.80;89.60;-5.80;98164.00;;;;5008556;28;20428;-73
2022/01/12 06:37:56;;;;;;;1.07;1.00;;;-4.90;90.00;-5.70;98177.00;;;;5008314;28;20436;-72
2022/01/12 06:40:45;;;;;;;2.57;2.33;;;-4.90;90.10;-5.80;98177.00;;;;5006473;28;20443;-74
2022/01/12 06:43:36;;;;;;;6.67;3.17;;;-4.90;90.00;-5.80;98179.00;;;;5009093;28;20429;-73
2022/01/12 06:46:29;;;;;;;3.83;2.20;;;-4.90;90.00;-5.90;98188.00;;;;5008735;28;20432;-74
2022/01/12 06:49:19;;;;;;;3.27;1.90;;;-4.90;90.10;-6.20;98182.00;;;;5009028;28;20449;-73
2022/01/12 06:52:09;;;;;;;5.00;2.33;;;-5.00;90.50;-6.40;98192.00;;;;5008701;28;20457;-71
2022/01/12 06:55:00;;;;;;;5.43;2.63;;;-5.10;90.80;-6.40;98196.00;;;;4998651;28;20425;-70
2022/01/12 06:57:49;;;;;;;6.87;3.73;;;-5.20;90.90;-6.20;98200.00;;;;5006055;28;20425;-73
2022/01/12 07:00:38;;;;;;;4.03;3.43;;;-5.30;91.20;-6.40;98192.00;;;;4996052;28;20440;-73
2022/01/12 07:03:27;;;;;;;22.33;5.37;;;-5.30;91.60;-6.50;98194.00;;;;5006393;28;20490;-74
2022/01/12 07:06:18;;;;;;;4.10;3.77;;;-5.30;92.00;-6.60;98176.00;;;;5009102;28;20475;-70
2022/01/12 07:09:08;;;;;;;3.57;3.03;;;-5.40;92.40;-6.30;98207.00;;;;5008184;28;20433;-72
2022/01/12 07:11:57;;;;;;;1.60;1.50;;;-5.30;92.40;-6.00;98218.00;;;;5007118;28;20453;-73
2022/01/12 07:14:46;;;;;;;2.80;2.00;;;-5.20;92.40;-6.10;98206.00;;;;5008244;28;20432;-73
2022/01/12 07:17:35;;;;;;;1.23;1.13;;;-5.10;92.10;-5.90;98209.00;;;;5007666;28;20444;-73
2022/01/12 07:20:23;;;;;;;2.90;2.60;;;-5.00;91.70;-5.80;98218.00;;;;5007039;28;20426;-73
2022/01/12 07:23:12;;;;;;;1.60;1.50;;;-4.90;91.60;-6.30;98217.00;;;;5001274;28;20433;-72
2022/01/12 07:26:03;;;;;;;8.73;2.13;;;-4.90;91.60;-6.00;98207.00;;;;5005433;28;21014;-73
2022/01/12 07:28:53;;;;;;;2.30;2.10;;;-4.90;91.70;-6.10;98220.00;;;;5008639;28;21186;-73
2022/01/12 07:31:42;;;;;;;3.50;2.20;;;-5.00;91.90;-5.80;98215.00;;;;4998284;28;20453;-72
2022/01/12 07:34:31;;;;;;;2.93;2.73;;;-4.90;91.80;-6.00;98219.00;;;;5008161;28;20956;-72
2022/01/12 07:37:22;;;;;;;5.00;4.07;;;-4.90;91.80;-5.80;98221.00;;;;5008020;28;20436;-72
2022/01/12 07:40:12;;;;;;;4.40;4.00;;;-4.90;91.80;-6.00;98215.00;;;;5001563;28;20809;-72
2022/01/12 07:43:03;;;;;;;6.50;4.17;;;-4.90;92.10;-5.80;98214.00;;;;5007851;28;20425;-73
2022/01/12 07:45:52;;;;;;;4.13;3.30;;;-4.90;92.00;-6.00;98230.00;;;;5007001;28;20864;-72
2022/01/12 07:48:45;;;;;;;5.90;5.03;;;-5.00;92.10;-6.00;98222.00;;;;5007735;28;20422;-73
2022/01/12 07:51:34;;;;;;;4.80;3.07;;;-5.00;92.30;-5.70;98222.00;;;;5007908;28;20445;-72
2022/01/12 07:54:23;;;;;;;3.63;2.50;;;-4.90;92.40;-5.40;98233.00;;;;5003168;28;20452;-72
2022/01/12 07:57:12;;;;;;;3.10;2.17;;;-4.80;91.70;-5.30;98230.00;;;;5006833;28;20414;-72
2022/01/12 08:00:03;;;;;;;2.73;2.13;;;-4.60;91.10;-5.20;98225.00;;;;5007518;28;20971;-73
2022/01/12 08:02:52;;;;;;;3.00;1.90;;;-4.50;90.90;-5.60;98237.00;;;;5006092;28;20979;-71
2022/01/12 08:05:41;;;;;;;4.03;3.33;;;-4.50;91.30;-5.90;98227.00;;;;5005730;28;20469;-73
2022/01/12 08:08:30;;;;;;;2.27;2.10;;;-4.60;91.70;-6.00;98231.00;;;;5008155;28;20433;-73
2022/01/12 08:11:19;;;;;;;6.10;2.53;;;-4.70;91.80;-5.80;98242.00;;;;5006072;28;21854;-73
2022/01/12 08:14:08;;;;;;;1.90;1.80;;;-4.80;92.10;-5.80;98239.00;;;;5006411;28;20805;-73
2022/01/12 08:16:58;;;;;;;2.43;1.40;;;-4.80;92.20;-5.80;98240.00;;;;5006895;28;20988;-72
2022/01/12 08:19:48;;;;;;;3.47;3.17;;;-4.80;92.30;-5.40;98252.00;;;;5003337;28;20757;-72
2022/01/12 08:22:37;;;;;;;3.03;2.57;;;-4.70;92.60;-5.00;98248.00;;;;5007378;28;20480;-70
2022/01/12 08:25:27;;;;;;;2.53;2.33;;;-4.60;92.10;-4.70;98259.00;;;;5004879;28;20461;-73
2022/01/12 08:28:16;;;;;;;3.23;2.37;;;-4.30;91.40;-4.50;98257.00;;;;5006560;28;20425;-72
2022/01/12 08:31:05;;;;;;;2.50;2.03;;;-4.10;90.90;-4.40;98258.00;;;;5006761;28;20441;-70
2022/01/12 08:33:55;;;;;;;3.67;2.40;;;-3.90;90.60;-4.30;98268.00;;;;5006400;28;20425;-72
2022/01/12 08:36:44;;;;;;;3.70;2.73;;;-3.70;90.10;-4.30;98266.00;;;;5006435;28;20810;-74
2022/01/12 08:39:33;;;;;;;4.30;2.27;;;-3.60;90.00;-4.30;98268.00;;;;5007408;28;20456;-71
2022/01/12 08:42:22;;;;;;;2.37;2.17;;;-3.50;89.90;-4.30;98259.00;;;;5006213;28;20453;-72
2022/01/12 08:45:13;;;;;;;3.30;2.00;;;-3.50;90.00;-4.40;98281.00;;;;5007811;28;20430;-72
2022/01/12 08:48:02;;;;;;;4.00;2.40;;;-3.50;89.10;-3.90;98267.00;;;;5007339;28;20936;-72
2022/01/12 08:50:53;;;;;;;3.40;2.90;;;-3.40;89.10;-3.80;98274.00;;;;5006583;28;20452;-72
2022/01/12 08:53:42;;;;;;;3.67;2.00;;;-1.70;90.00;-3.60;98254.00;;;;5003417;28;20437;-72
2022/01/12 08:56:31;;;;;;;2.37;1.67;;;-3.20;88.20;-3.50;98269.00;;;;5005565;28;20433;-73
2022/01/12 08:59:20;;;;;;;2.57;1.73;;;-3.00;87.50;-3.10;98259.00;;;;5006647;28;20436;-72
2022/01/12 09:02:11;;;;;;;4.00;1.60;;;-2.80;86.80;-3.30;98268.00;;;;5006332;28;20472;-74
2022/01/12 09:05:00;;;;;;;2.67;2.20;;;-2.60;85.00;-3.00;98279.00;;;;5006545;28;20413;-73
2022/01/12 09:07:52;;;;;;;3.07;2.23;;;-2.50;85.60;-3.30;98261.00;;;;5007077;28;20436;-73
2022/01/12 09:10:41;;;;;;;4.00;2.80;;;-2.40;85.70;-3.30;98267.00;;;;5005582;28;20425;-77
2022/01/12 09:13:30;;;;;;;9.03;5.30;;;-2.50;86.20;-3.40;98275.00;;;;5005871;28;20427;-73
2022/01/12 09:16:19;;;;;;;8.80;4.30;;;-2.50;86.40;-3.50;98272.00;;;;5010828;28;20433;-74
2022/01/12 09:19:11;;;;;;;8.23;5.77;;;-2.60;85.90;-3.60;98264.00;;;;5015494;28;20829;-74
2022/01/12 09:21:59;;;;;;;8.50;3.90;;;-2.70;85.90;-3.60;98267.00;;;;5002539;28;20976;-74
2022/01/12 09:24:50;;;;;;;5.00;2.90;;;-2.70;86.80;-3.60;98265.00;;;;5004580;28;20447;-73
2022/01/12 09:27:39;;;;;;;3.03;2.30;;;-2.70;87.50;-3.60;98252.00;;;;5006902;28;20444;-72
2022/01/12 09:30:29;;;;;;;2.90;2.00;;;-2.80;88.00;-3.40;98250.00;;;;5005440;28;20768;-75
2022/01/12 09:33:18;;;;;;;1.93;1.70;;;-2.70;86.20;-3.10;98255.00;;;;5006349;28;20434;-75
2022/01/12 09:36:08;;;;;;;6.73;1.77;;;-2.60;86.60;-3.30;98254.00;;;;5004816;28;20421;-74
2022/01/12 09:38:57;;;;;;;1.70;1.60;;;-2.50;86.30;-3.10;98248.00;;;;5005444;28;20437;-75
2022/01/12 09:41:47;;;;;;;2.90;2.07;;;-2.40;86.20;-2.90;98252.00;;;;5005469;28;20457;-74
2022/01/12 09:44:43;;;;;;;1.73;1.63;;;-2.30;87.20;-2.60;98249.00;;;;5006392;28;20433;-72
2022/01/12 09:47:32;;;;;;;2.90;1.87;;;-2.20;86.50;-2.40;98245.00;;;;4995337;28;20473;-75
2022/01/12 09:50:25;;;;;;;3.73;2.43;;;-2.00;85.80;-2.10;98249.00;;;;5004964;28;20826;-75
2022/01/12 09:53:13;;;;;;;4.47;1.83;;;-1.80;84.30;-1.90;98230.00;;;;4996120;28;20432;-74
2022/01/12 09:56:10;;;;;;;5.07;2.43;;;-1.60;84.00;-1.80;98242.00;;;;5003777;28;20798;-75
2022/01/12 09:59:03;;;;;;;3.60;2.90;;;-1.40;83.70;-1.50;98236.00;;;;5005787;28;20451;-74
2022/01/12 10:01:52;;;;;;;4.63;2.53;;;-1.30;82.00;-1.10;98240.00;;;;5004847;28;20546;-73
2022/01/12 10:04:41;;;;;;;2.90;2.70;;;-1.10;81.40;-0.80;98237.00;;;;5005660;28;20439;-74
2022/01/12 10:07:30;;;;;;;4.37;2.80;;;-0.80;81.40;-0.60;98235.00;;;;5005280;28;20465;-72
2022/01/12 10:10:20;;;;;;;4.50;2.70;;;-0.60;80.30;-0.60;98228.00;;;;5006594;28;20448;-75
2022/01/12 10:13:23;;;;;;;5.10;2.97;;;-0.40;78.90;-0.10;98232.00;;;;5005620;28;20633;-75
2022/01/12 10:16:15;;;;;;;3.17;2.30;;;-0.20;78.30;0.80;98235.00;;;;5004745;28;20837;-75
2022/01/12 10:19:04;;;;;;;4.77;1.37;;;0.10;78.80;1.70;98238.00;;;;4997555;28;20525;-74
2022/01/12 10:21:53;;;;;;;3.13;1.90;;;0.70;75.70;2.20;98239.00;;;;5002876;28;20843;-73
2022/01/12 10:24:44;;;;;;;3.20;1.93;;;1.10;73.20;2.80;98249.00;;;;5004404;28;20982;-72
2022/01/12 10:27:40;;;;;;;4.53;2.13;;;1.70;73.40;3.20;98235.00;;;;5006745;28;20475;-71
2022/01/12 10:30:32;;;;;;;6.70;2.87;;;2.20;71.30;3.60;98232.00;;;;5002147;28;20561;-72
2022/01/12 10:33:25;;;;;;;3.27;2.47;;;2.70;70.90;4.30;98241.00;;;;5001207;28;20449;-73
2022/01/12 10:36:14;;;;;;;12.73;2.17;;;3.70;62.80;5.20;98239.00;;;;5002557;28;20428;-72
2022/01/12 10:39:07;;;;;;;5.13;1.90;;;4.80;62.70;6.00;98239.00;;;;5008582;28;20236;-74
2022/01/12 10:42:02;;;;;;;3.53;2.03;;;6.00;59.30;6.20;98231.00;;;;5008840;28;20230;-75
2022/01/12 10:44:54;;;;;;;4.10;1.93;;;7.00;56.50;6.90;98238.00;;;;5008377;28;20206;-73
2022/01/12 10:47:42;;;;;;;3.53;2.27;;;7.70;55.70;6.90;98232.00;;;;4996302;28;20627;-76
2022/01/12 10:50:33;;;;;;;2.70;2.47;;;8.20;53.40;6.50;98228.00;;;;5008337;28;20208;-73
2022/01/12 10:53:31;;;;;;;2.27;1.90;;;8.60;51.40;5.20;98217.00;;;;5008538;28;20220;-74
2022/01/12 10:56:23;;;;;;;4.93;2.13;;;8.30;49.70;5.70;98211.00;;;;4998530;28;20703;-73
2022/01/12 10:59:17;;;;;;;5.03;4.03;;;7.90;50.80;5.90;98209.00;;;;5008863;28;20551;-75
2022/01/12 11:02:06;;;;;;;5.47;3.00;;;7.90;50.00;5.90;98210.00;;;;5001800;28;20228;-75
2022/01/12 11:04:57;;;;;;;4.43;2.30;;;7.70;50.10;6.50;98213.00;;;;5007810;28;20195;-72
2022/01/12 11:07:48;;;;;;;4.93;2.67;;;7.70;50.10;7.60;98213.00;;;;5009796;28;20225;-74
2022/01/12 11:10:37;;;;;;;2.23;2.03;;;8.00;50.40;8.20;98221.00;;;;5005758;28;20206;-75
2022/01/12 11:13:29;;;;;;;3.33;2.00;;;8.50;49.80;8.70;98218.00;;;;5003676;28;20197;-75
2022/01/12 11:16:21;;;;;;;4.97;2.17;;;9.90;49.40;8.90;98211.00;;;;5008238;28;20690;-73
2022/01/12 11:19:11;;;;;;;4.60;2.63;;;9.50;47.70;8.70;98207.00;;;;5008078;28;20248;-72
2022/01/12 11:22:14;;;;;;;3.57;1.90;;;9.70;47.60;8.80;98205.00;;;;5007993;28;20248;-75
2022/01/12 11:25:22;;;;;;;4.50;2.50;;;9.60;46.60;8.90;98193.00;;;;5006794;28;20206;-73
2022/01/12 11:28:15;;;;;;;3.03;2.30;;;9.70;46.10;8.10;98185.00;;;;5007693;28;20220;-76
2022/01/12 11:31:06;;;;;;;5.00;3.10;;;10.00;43.40;8.90;98191.00;;;;5007034;28;20237;-73
2022/01/12 11:33:55;;;;;;;11.20;5.40;;;9.80;44.70;8.80;98203.00;;;;5008327;28;20218;-73
2022/01/12 11:36:43;;;;;;;9.80;5.57;;;9.60;48.00;9.50;98203.00;;;;5006775;28;20213;-74
2022/01/12 11:39:33;;;;;;;10.17;4.70;;;9.70;48.40;8.90;98196.00;;;;5000597;28;20214;-75
2022/01/12 11:42:23;;;;;;;5.57;4.13;;;9.80;47.20;9.50;98193.00;;;;5007166;28;20230;-76
2022/01/12 11:45:21;;;;;;;8.83;4.50;;;9.90;46.70;9.60;98184.00;;;;5006447;28;20206;-75
2022/01/12 11:48:10;;;;;;;8.40;3.53;;;10.40;45.00;9.00;98182.00;;;;5007612;28;20230;-75
2022/01/12 11:50:59;;;;;;;4.13;2.60;;;10.70;45.60;9.10;98168.00;;;;4995303;28;20609;-75
2022/01/12 11:53:52;;;;;;;2.80;1.60;;;11.10;44.10;8.70;98156.00;;;;5005208;28;20319;-76
2022/01/12 11:56:56;;;;;;;2.27;2.07;;;11.30;42.50;10.60;98173.00;;;;5006829;28;20606;-75
2022/01/12 11:59:56;;;;;;;5.80;2.67;;;11.60;42.40;11.90;98168.00;;;;5006170;28;20620;-74
2022/01/12 12:02:47;;;;;;;7.43;3.70;;;12.10;43.30;12.60;98169.00;;;;5006269;28;20268;-75
2022/01/12 12:05:41;;;;;;;7.23;4.20;;;12.50;43.20;12.60;98178.00;;;;5002997;28;20720;-75
2022/01/12 12:08:30;;;;;;;6.50;3.57;;;12.60;42.70;13.40;98170.00;;;;5007127;28;20244;-73
2022/01/12 12:11:19;;;;;;;7.07;5.40;;;13.30;42.10;14.00;98180.00;;;;5007160;28;20309;-75
2022/01/12 12:14:10;;;;;;;13.50;5.97;;;14.00;42.20;14.60;98172.00;;;;5007226;28;20278;-74
2022/01/12 12:17:00;;;;;;;5.93;4.17;;;14.70;42.50;14.60;98163.00;;;;5007176;28;20237;-74
2022/01/12 12:19:52;;;;;;;7.07;4.60;;;15.20;41.70;14.60;98162.00;;;;4999446;28;20221;-74
2022/01/12 12:22:44;;;;;;;16.23;11.83;;;15.70;40.20;14.90;98162.00;;;;4997289;28;20225;-77
2022/01/12 12:25:35;;;;;;;13.70;8.50;;;16.10;40.30;15.40;98167.00;;;;5001807;28;20665;-76
2022/01/12 12:28:24;;;;;;;16.23;8.83;;;16.60;40.80;15.60;98165.00;;;;4999297;28;20213;-76
2022/01/12 12:31:22;;;;;;;18.30;9.13;;;16.90;40.80;15.90;98169.00;;;;4999015;28;20230;-75
2022/01/12 12:34:25;;;;;;;21.33;8.93;;;17.30;40.50;15.90;98173.00;;;;4997302;28;20708;-75
2022/01/12 12:37:18;;;;;;;13.57;7.77;;;17.40;40.40;15.80;98176.00;;;;4999557;28;20239;-76
2022/01/12 12:40:20;;;;;;;12.93;7.00;;;17.50;39.90;16.00;98170.00;;;;5006478;28;20586;-77
2022/01/12 12:43:13;;;;;;;12.40;8.17;;;17.40;39.50;15.60;98173.00;;;;4998032;28;20213;-77
2022/01/12 12:46:09;;;;;;;15.43;7.53;;;17.40;40.10;16.20;98183.00;;;;5005973;28;20591;-74
2022/01/12 12:49:00;;;;;;;11.53;7.77;;;17.40;40.40;16.00;98191.00;;;;5008073;28;20209;-75
2022/01/12 12:51:50;;;;;;;11.97;7.13;;;17.50;40.10;15.30;98188.00;;;;4990226;28;20308;-76
2022/01/12 12:54:41;;;;;;;9.53;7.20;;;17.60;38.70;15.10;98182.00;;;;5007940;28;20486;-77
2022/01/12 12:57:30;;;;;;;12.47;7.70;;;17.30;38.50;14.90;98182.00;;;;5006933;28;20234;-76
2022/01/12 13:00:23;;;;;;;9.10;7.00;;;17.00;39.60;15.10;98186.00;;;;5006265;28;20601;-75
2022/01/12 13:03:11;;;;;;;9.60;7.13;;;17.10;40.20;15.40;98192.00;;;;5006300;28;20213;-75
2022/01/12 13:06:00;;;;;;;17.00;8.37;;;17.20;39.90;15.10;98195.00;;;;5006022;28;20202;-76
2022/01/12 13:08:56;;;;;;;10.97;8.13;;;17.00;40.10;14.70;98199.00;;;;5007627;28;20267;-75
2022/01/12 13:11:46;;;;;;;11.37;7.90;;;17.00;40.00;14.80;98191.00;;;;4996825;28;20963;-76
2022/01/12 13:14:43;;;;;;;12.93;7.70;;;16.70;40.20;15.50;98204.00;;;;4991833;28;20238;-75
2022/01/12 13:17:33;;;;;;;12.43;8.30;;;16.70;40.20;14.10;98206.00;;;;5002682;28;20222;-75
2022/01/12 13:23:38;;;;;;;14.33;8.17;;;16.30;40.40;14.00;98201.00;;;;5002226;28;20208;-75
2022/01/12 13:26:31;;;;;;;10.97;8.17;;;15.80;40.80;14.10;98206.00;;;;4993654;28;20212;-77
2022/01/12 13:29:21;;;;;;;11.13;7.60;;;15.80;41.10;13.40;98191.00;;;;5006121;28;20206;-76
2022/01/12 13:32:12;;;;;;;11.20;8.50;;;15.70;41.00;14.50;98198.00;;;;5011077;28;20487;-76
2022/01/12 13:35:06;;;;;;;13.10;8.33;;;16.00;41.20;14.90;98209.00;;;;4981368;28;20210;-76
2022/01/12 13:37:57;;;;;;;13.83;8.40;;;16.30;40.70;14.80;98204.00;;;;4990176;28;20228;-74
2022/01/12 13:41:08;;;;;;;16.90;8.50;;;16.40;40.30;15.50;98215.00;;;;4981007;28;20237;-76
2022/01/12 13:44:05;;;;;;;9.97;8.47;;;16.70;40.10;14.70;98207.00;;;;4986452;28;20256;-76
2022/01/12 13:47:06;;;;;;;10.83;8.70;;;16.80;39.70;15.30;98206.00;;;;4983642;28;20213;-76